Aérodrome :
LOGIN :

S'inscrire | Disclaimer

   EN    FR    IT 

 










Légende :    VFR   VFR Marginal   IFR   IFR Intensif   IFR Très Intensif
Visi : 
Plafond : 
>= 8 km
>= 3000ft
5 à 8 km
1000 à 3000 ft
1500m à 5 km
500 à 1000 ft
800 à 1500m
200 à 500 ft
< 800m
< 200 ft
Symboles :   Orages  Brouillard  Fortes neiges  Fortes précipitations  Vent > 20 kt
SIGMETs :   Divers  Orages  Givrage  Turbulence  Onde Orograph.  Cendres Volcan.







- Altitude de l'aérodrome : 17 ft
- Code IATA : GRQ


EHGG - Groningen Eelde

DERNIER METAR :
  • 211725Z AUTO 26007KT 220V300 1600 BR BKN002 OVC003 08/08 Q1026 TEMPO 1200 BCFG BKN003

METARs EXPIRÉS :
  • 211655Z AUTO 26007KT 230V290 1300 R23/P2000N BR BKN002 OVC003 08/08 Q1025 TEMPO 1500 BKN003
  • 211625Z AUTO 27008KT 2300 BR BKN003 OVC004 09/08 Q1025 TEMPO 1300 FG
  • 211555Z AUTO 26008KT 230V290 1500 BR SCT002 BKN003 OVC006 09/08 Q1025 NOSIG
  • 211525Z AUTO 26009KT 230V290 1900 BR SCT002 BKN004 OVC005 09/08 Q1025 TEMPO 3500
  • 211455Z AUTO 26009KT 1900 BR SCT003 BKN004 OVC005 09/08 Q1025 TEMPO 2500

TAF TAF EHGG
Valide du 21 à 12h jusqu'au 22 à 18h UTC


211057Z 2112/2218 25012KT 9000 BKN009
BECMG 2112/2114 6000
PROB40
TEMPO 2112/2116 2000 BR -RADZ BKN003
BECMG 2116/2119 4000 BR BKN004
BECMG 2120/2123 VRB03KT 1200
PROB40 2122/2208 0600 FG BKN001
BECMG 2206/2209 09005KT 2000 BKN008
BECMG 2210/2213 CAVOK
Pas de NOTAMs connus pour ce terrain.



MET'MAP, la Météo Aéronautique d'un coup d'oeil ! - Copyright ORBIFLY Décembre 2007 - Disclaimer

ORBIFLY MET'MAP TEAM :

Programmation & Développement : Alexandra Zaïnal
Conception & Développement : Baudouin d'Aumeries
Co-Programmation & Développement : Marc-Olivier Méhu
Soutien technique & logistique : Manuel Goepfert

Contact : metmap@orbifly.com




SOURCES & CREDITS :

   NOAA